메인 페이지
METAR-TAF:

METAR-TAF

공항 :

구이린, 중국

구이린 량장 국제공항

위도: 25-20N, 경도: 110-18E, 고도: 166m

현재 날씨관측

예보는 1 시간 9분 전, 00:00시(UTC)에 발표되었습니다.
8kt
온도 20°C
습도 78%
기압 1015 hPa
시정 10km 이상
고도 3300ft 상공 구름 많음

METAR: ZGKL 180000Z 19004MPS 9999 BKN033 20/16 Q1015 NOSIG

시각: 09:09 (01:09 UTC)

예보

예보는 5 시간 54분 전, 19:15시(UTC)에 발표되었습니다.
예보 대상 시간: 18일 00시부터 18일 24시까지 (UTC)
10kt
시정: 6000m
고도 5000ft 상공 구름 많음

TAF: ZGKL 171915Z 1800/1824 18005MPS 6000 BKN050 TX22/1807Z TN13/1822Z

4,000개 이상의 공항 관측 자료 및 예보 (METAR 및 TAF 보고).

지도상에서 검색 가능한 기상관측소가 노란 점과 빨간 점으로 표시되어 있습니다.

기상관측소 명을 보려면 표시 위로 마우스를 이동하세요.

날씨 관측과 예보를 보려면 클릭하세요.

지도 변경 : 확대하려면 엑스 표시가 있는 녹색 버튼, 축소하려면 빼기 표시가 있는 녹색 버튼, 다음 페이지의 지도를 보려면 녹색 화살표를 클릭하세요.


METAR-TAF: